sensor_id;sensor_type;location;lat;lon;timestamp;pressure;altitude;pressure_sealevel;temperature;humidity
71772;BME280;59606;52.138;5.424;2023-05-19T00:01:14;102897.59;;;10.23;73.41
71772;BME280;59606;52.138;5.424;2023-05-19T00:03:50;102901.09;;;10.22;73.27
71772;BME280;59606;52.138;5.424;2023-05-19T00:06:22;102900.28;;;10.20;73.92
71772;BME280;59606;52.138;5.424;2023-05-19T00:08:56;102897.75;;;10.15;74.21
71772;BME280;59606;52.138;5.424;2023-05-19T00:11:23;102898.66;;;10.12;74.81
71772;BME280;59606;52.138;5.424;2023-05-19T00:13:58;102898.69;;;10.11;74.11
71772;BME280;59606;52.138;5.424;2023-05-19T00:16:26;102897.97;;;10.04;74.83
71772;BME280;59606;52.138;5.424;2023-05-19T00:18:57;102897.16;;;10.01;74.71
71772;BME280;59606;52.138;5.424;2023-05-19T00:21:26;102882.50;;;9.97;74.99
71772;BME280;59606;52.138;5.424;2023-05-19T00:23:52;102880.75;;;9.96;75.05
71772;BME280;59606;52.138;5.424;2023-05-19T00:26:19;102884.34;;;9.90;75.22
71772;BME280;59606;52.138;5.424;2023-05-19T00:28:48;102881.81;;;9.87;75.90
71772;BME280;59606;52.138;5.424;2023-05-19T00:31:15;102885.31;;;9.84;75.70
71772;BME280;59606;52.138;5.424;2023-05-19T00:33:42;102885.47;;;9.77;75.81
71772;BME280;59606;52.138;5.424;2023-05-19T00:36:08;102882.88;;;9.77;75.87
71772;BME280;59606;52.138;5.424;2023-05-19T00:38:35;102880.28;;;9.75;76.46
71772;BME280;59606;52.138;5.424;2023-05-19T00:41:03;102877.69;;;9.75;76.26
71772;BME280;59606;52.138;5.424;2023-05-19T00:43:31;102883.88;;;9.70;76.34
71772;BME280;59606;52.138;5.424;2023-05-19T00:46:01;102890.84;;;9.67;76.85
71772;BME280;59606;52.138;5.424;2023-05-19T00:48:28;102881.31;;;9.66;76.38
71772;BME280;59606;52.138;5.424;2023-05-19T00:50:59;102885.78;;;9.60;76.83
71772;BME280;59606;52.138;5.424;2023-05-19T00:53:33;102886.72;;;9.56;76.46
71772;BME280;59606;52.138;5.424;2023-05-19T00:56:01;102883.28;;;9.52;77.00
71772;BME280;59606;52.138;5.424;2023-05-19T00:58:29;102879.03;;;9.50;77.19
71772;BME280;59606;52.138;5.424;2023-05-19T01:00:58;102877.31;;;9.47;76.90
71772;BME280;59606;52.138;5.424;2023-05-19T01:03:30;102876.53;;;9.42;77.14
71772;BME280;59606;52.138;5.424;2023-05-19T01:05:57;102880.03;;;9.41;77.22
71772;BME280;59606;52.138;5.424;2023-05-19T01:08:28;102879.22;;;9.37;77.53
71772;BME280;59606;52.138;5.424;2023-05-19T01:10:57;102889.69;;;9.34;77.86
71772;BME280;59606;52.138;5.424;2023-05-19T01:13:23;102886.28;;;9.31;77.34
71772;BME280;59606;52.138;5.424;2023-05-19T01:16:04;102891.47;;;9.31;78.48
71772;BME280;59606;52.138;5.424;2023-05-19T01:19:00;102885.50;;;9.24;77.81
71772;BME280;59606;52.138;5.424;2023-05-19T01:24:42;102882.16;;;9.17;78.95
71772;BME280;59606;52.138;5.424;2023-05-19T01:32:33;102873.63;;;9.08;79.34
71772;BME280;59606;52.138;5.424;2023-05-19T01:35:02;102876.28;;;9.06;79.32
71772;BME280;59606;52.138;5.424;2023-05-19T01:37:30;102868.53;;;9.03;79.59
71772;BME280;59606;52.138;5.424;2023-05-19T01:39:59;102867.69;;;9.01;79.68
71772;BME280;59606;52.138;5.424;2023-05-19T01:42:27;102861.66;;;8.99;79.87
71772;BME280;59606;52.138;5.424;2023-05-19T01:44:55;102864.34;;;8.93;80.06
71772;BME280;59606;52.138;5.424;2023-05-19T01:47:22;102865.28;;;8.89;80.41
71772;BME280;59606;52.138;5.424;2023-05-19T01:49:49;102862.69;;;8.89;80.63
71772;BME280;59606;52.138;5.424;2023-05-19T01:52:16;102865.31;;;8.86;80.46
71772;BME280;59606;52.138;5.424;2023-05-19T01:54:42;102865.34;;;8.84;80.83
71772;BME280;59606;52.138;5.424;2023-05-19T01:57:25;102867.13;;;8.82;80.44
71772;BME280;59606;52.138;5.424;2023-05-19T02:00:46;102861.13;;;8.77;80.28
71772;BME280;59606;52.138;5.424;2023-05-19T02:03:41;102852.53;;;8.72;80.92
71772;BME280;59606;52.138;5.424;2023-05-19T02:06:35;102854.28;;;8.70;81.13
71772;BME280;59606;52.138;5.424;2023-05-19T02:09:20;102860.38;;;8.67;81.21
71772;BME280;59606;52.138;5.424;2023-05-19T02:11:55;102859.56;;;8.65;81.32
71772;BME280;59606;52.138;5.424;2023-05-19T02:14:32;102855.25;;;8.63;81.39
71772;BME280;59606;52.138;5.424;2023-05-19T02:17:03;102859.66;;;8.58;82.27
71772;BME280;59606;52.138;5.424;2023-05-19T02:19:32;102863.19;;;8.54;81.55
71772;BME280;59606;52.138;5.424;2023-05-19T02:21:59;102854.53;;;8.52;81.92
71772;BME280;59606;52.138;5.424;2023-05-19T02:24:26;102859.81;;;8.48;82.23
71772;BME280;59606;52.138;5.424;2023-05-19T02:26:53;102851.13;;;8.49;82.54
71772;BME280;59606;52.138;5.424;2023-05-19T02:29:20;102853.72;;;8.48;82.69
71772;BME280;59606;52.138;5.424;2023-05-19T02:31:47;102847.75;;;8.43;82.30
71772;BME280;59606;52.138;5.424;2023-05-19T02:34:13;102851.22;;;8.42;82.37
71772;BME280;59606;52.138;5.424;2023-05-19T02:36:41;102844.34;;;8.39;83.07
71772;BME280;59606;52.138;5.424;2023-05-19T02:39:10;102845.19;;;8.37;82.84
71772;BME280;59606;52.138;5.424;2023-05-19T02:41:37;102848.69;;;8.34;82.90
71772;BME280;59606;52.138;5.424;2023-05-19T02:44:04;102840.97;;;8.30;83.17
71772;BME280;59606;52.138;5.424;2023-05-19T02:46:31;102840.97;;;8.28;83.12
71772;BME280;59606;52.138;5.424;2023-05-19T02:48:58;102833.25;;;8.25;83.42
71772;BME280;59606;52.138;5.424;2023-05-19T02:51:24;102828.94;;;8.22;82.81
71772;BME280;59606;52.138;5.424;2023-05-19T02:53:51;102831.56;;;8.19;83.20
71772;BME280;59606;52.138;5.424;2023-05-19T02:56:17;102831.56;;;8.18;83.97
71772;BME280;59606;52.138;5.424;2023-05-19T02:58:44;102829.88;;;8.17;84.52
71772;BME280;59606;52.138;5.424;2023-05-19T03:01:10;102819.53;;;8.14;84.06
71772;BME280;59606;52.138;5.424;2023-05-19T03:03:37;102827.31;;;8.14;84.24
71772;BME280;59606;52.138;5.424;2023-05-19T03:06:04;102822.19;;;8.09;84.67
71772;BME280;59606;52.138;5.424;2023-05-19T03:08:34;102822.19;;;8.08;84.65
71772;BME280;59606;52.138;5.424;2023-05-19T03:11:01;102825.75;;;8.02;84.80
71772;BME280;59606;52.138;5.424;2023-05-19T03:13:28;102816.25;;;7.99;85.02
71772;BME280;59606;52.138;5.424;2023-05-19T03:15:55;102818.84;;;7.98;85.26
71772;BME280;59606;52.138;5.424;2023-05-19T03:18:25;102812.84;;;7.94;85.56
71772;BME280;59606;52.138;5.424;2023-05-19T03:20:52;102823.25;;;7.91;85.28
71772;BME280;59606;52.138;5.424;2023-05-19T03:23:20;102823.25;;;7.91;85.24
71772;BME280;59606;52.138;5.424;2023-05-19T03:25:47;102822.44;;;7.89;85.14
71772;BME280;59606;52.138;5.424;2023-05-19T03:28:14;102823.31;;;7.87;85.06
71772;BME280;59606;52.138;5.424;2023-05-19T03:30:40;102823.34;;;7.84;84.68
71772;BME280;59606;52.138;5.424;2023-05-19T03:33:08;102818.19;;;7.80;85.39
71772;BME280;59606;52.138;5.424;2023-05-19T03:35:34;102819.94;;;7.80;85.21
71772;BME280;59606;52.138;5.424;2023-05-19T03:38:01;102813.91;;;7.76;85.64
71772;BME280;59606;52.138;5.424;2023-05-19T03:40:27;102819.13;;;7.75;85.07
71772;BME280;59606;52.138;5.424;2023-05-19T03:42:54;102814.81;;;7.74;85.10
71772;BME280;59606;52.138;5.424;2023-05-19T03:45:20;102812.25;;;7.72;85.46
71772;BME280;59606;52.138;5.424;2023-05-19T03:47:47;102807.94;;;7.70;85.54
71772;BME280;59606;52.138;5.424;2023-05-19T03:50:13;102814.00;;;7.67;85.57
71772;BME280;59606;52.138;5.424;2023-05-19T03:52:40;102811.47;;;7.63;85.09
71772;BME280;59606;52.138;5.424;2023-05-19T03:55:14;102815.84;;;7.59;85.37
71772;BME280;59606;52.138;5.424;2023-05-19T03:57:41;102815.84;;;7.57;85.66
71772;BME280;59606;52.138;5.424;2023-05-19T04:00:11;102825.38;;;7.59;86.27
71772;BME280;59606;52.138;5.424;2023-05-19T04:02:38;102814.06;;;7.61;86.18
71772;BME280;59606;52.138;5.424;2023-05-19T04:05:06;102821.84;;;7.63;86.38
71772;BME280;59606;52.138;5.424;2023-05-19T04:07:33;102831.38;;;7.62;85.97
71772;BME280;59606;52.138;5.424;2023-05-19T04:10:03;102821.84;;;7.63;86.60
71772;BME280;59606;52.138;5.424;2023-05-19T04:12:30;102824.44;;;7.63;86.97
71772;BME280;59606;52.138;5.424;2023-05-19T04:14:57;102824.44;;;7.61;86.59
71772;BME280;59606;52.138;5.424;2023-05-19T04:17:25;102815.81;;;7.62;87.02
71772;BME280;59606;52.138;5.424;2023-05-19T04:19:53;102815.81;;;7.62;87.46
71772;BME280;59606;52.138;5.424;2023-05-19T04:22:19;102821.84;;;7.63;87.37
71772;BME280;59606;52.138;5.424;2023-05-19T04:24:46;102814.94;;;7.63;87.18
71772;BME280;59606;52.138;5.424;2023-05-19T04:27:13;102823.56;;;7.64;87.41
71772;BME280;59606;52.138;5.424;2023-05-19T04:29:41;102823.56;;;7.64;87.43
71772;BME280;59606;52.138;5.424;2023-05-19T04:32:07;102822.72;;;7.63;88.18
71772;BME280;59606;52.138;5.424;2023-05-19T04:34:34;102821.81;;;7.66;87.95
71772;BME280;59606;52.138;5.424;2023-05-19T04:37:01;102818.34;;;7.67;88.22
71772;BME280;59606;52.138;5.424;2023-05-19T04:39:28;102824.38;;;7.67;88.33
71772;BME280;59606;52.138;5.424;2023-05-19T04:41:54;102827.88;;;7.66;88.18
71772;BME280;59606;52.138;5.424;2023-05-19T04:44:21;102826.13;;;7.67;88.76
71772;BME280;59606;52.138;5.424;2023-05-19T04:46:48;102833.88;;;7.70;88.28
71772;BME280;59606;52.138;5.424;2023-05-19T04:49:15;102830.41;;;7.72;88.76
71772;BME280;59606;52.138;5.424;2023-05-19T04:51:41;102825.16;;;7.77;88.83
71772;BME280;59606;52.138;5.424;2023-05-19T04:54:08;102831.16;;;7.80;89.44
71772;BME280;59606;52.138;5.424;2023-05-19T04:56:36;102834.59;;;7.86;89.14
71772;BME280;59606;52.138;5.424;2023-05-19T04:59:03;102834.50;;;7.90;89.18
71772;BME280;59606;52.138;5.424;2023-05-19T05:01:29;102836.16;;;7.99;89.43
71772;BME280;59606;52.138;5.424;2023-05-19T05:03:58;102835.19;;;8.06;89.58
71772;BME280;59606;52.138;5.424;2023-05-19T05:06:26;102835.13;;;8.12;89.61
71772;BME280;59606;52.138;5.424;2023-05-19T05:08:53;102826.34;;;8.21;89.76
71772;BME280;59606;52.138;5.424;2023-05-19T05:11:20;102830.63;;;8.26;90.47
71772;BME280;59606;52.138;5.424;2023-05-19T05:13:47;102835.72;;;8.33;89.97
71772;BME280;59606;52.138;5.424;2023-05-19T05:16:14;102840.88;;;8.36;90.30
71772;BME280;59606;52.138;5.424;2023-05-19T05:18:42;102845.16;;;8.43;89.92
71772;BME280;59606;52.138;5.424;2023-05-19T05:21:10;102847.72;;;8.46;89.77
71772;BME280;59606;52.138;5.424;2023-05-19T05:23:38;102844.19;;;8.50;90.65
71772;BME280;59606;52.138;5.424;2023-05-19T05:26:09;102837.16;;;8.57;90.42
71772;BME280;59606;52.138;5.424;2023-05-19T05:28:40;102842.19;;;8.69;91.20
71772;BME280;59606;52.138;5.424;2023-05-19T05:31:06;102844.63;;;8.80;91.22
71772;BME280;59606;52.138;5.424;2023-05-19T05:33:33;102841.03;;;8.87;90.07
71772;BME280;59606;52.138;5.424;2023-05-19T05:35:59;102841.81;;;8.92;91.14
71772;BME280;59606;52.138;5.424;2023-05-19T05:38:26;102842.56;;;9.00;90.17
71772;BME280;59606;52.138;5.424;2023-05-19T05:40:52;102838.13;;;9.07;89.47
71772;BME280;59606;52.138;5.424;2023-05-19T05:43:19;102831.00;;;9.19;89.67
71772;BME280;59606;52.138;5.424;2023-05-19T05:45:46;102834.78;;;9.50;88.65
71772;BME280;59606;52.138;5.424;2023-05-19T05:48:12;102836.41;;;10.00;88.16
71772;BME280;59606;52.138;5.424;2023-05-19T05:50:41;102835.97;;;10.64;85.54
71772;BME280;59606;52.138;5.424;2023-05-19T05:53:11;102838.25;;;11.46;84.03
71772;BME280;59606;52.138;5.424;2023-05-19T05:55:41;102835.28;;;12.22;79.81
71772;BME280;59606;52.138;5.424;2023-05-19T05:58:08;102837.56;;;12.89;76.73
71772;BME280;59606;52.138;5.424;2023-05-19T06:00:37;102826.28;;;13.40;73.56
71772;BME280;59606;52.138;5.424;2023-05-19T06:03:03;102826.00;;;13.73;71.44
71772;BME280;59606;52.138;5.424;2023-05-19T06:05:31;102828.50;;;13.51;71.93
71772;BME280;59606;52.138;5.424;2023-05-19T06:07:57;102829.81;;;12.86;72.20
71772;BME280;59606;52.138;5.424;2023-05-19T06:10:24;102828.78;;;12.63;73.24
71772;BME280;59606;52.138;5.424;2023-05-19T06:12:51;102836.06;;;12.25;73.75
71772;BME280;59606;52.138;5.424;2023-05-19T06:15:18;102832.59;;;11.63;76.49
71772;BME280;59606;52.138;5.424;2023-05-19T06:17:44;102838.13;;;11.18;78.84
71772;BME280;59606;52.138;5.424;2023-05-19T06:20:11;102837.22;;;10.83;81.00
71772;BME280;59606;52.138;5.424;2023-05-19T06:22:38;102838.03;;;10.85;81.56
71772;BME280;59606;52.138;5.424;2023-05-19T06:25:05;102834.88;;;10.72;81.93
71772;BME280;59606;52.138;5.424;2023-05-19T06:27:34;102835.00;;;10.66;81.95
71772;BME280;59606;52.138;5.424;2023-05-19T06:30:01;102835.84;;;10.68;83.60
71772;BME280;59606;52.138;5.424;2023-05-19T06:32:28;102827.69;;;10.82;84.02
71772;BME280;59606;52.138;5.424;2023-05-19T06:34:55;102829.94;;;10.97;82.49
71772;BME280;59606;52.138;5.424;2023-05-19T06:37:22;102835.03;;;11.02;82.56
71772;BME280;59606;52.138;5.424;2023-05-19T06:39:51;102826.84;;;11.16;83.00
71772;BME280;59606;52.138;5.424;2023-05-19T06:42:18;102827.78;;;11.13;83.02
71772;BME280;59606;52.138;5.424;2023-05-19T06:44:50;102824.06;;;11.23;82.50
71772;BME280;59606;52.138;5.424;2023-05-19T06:47:17;102828.03;;;11.37;81.10
71772;BME280;59606;52.138;5.424;2023-05-19T06:49:44;102827.59;;;11.53;80.81
71772;BME280;59606;52.138;5.424;2023-05-19T06:52:11;102823.91;;;11.62;80.68
71772;BME280;59606;52.138;5.424;2023-05-19T06:54:37;102827.03;;;11.75;80.14
71772;BME280;59606;52.138;5.424;2023-05-19T06:57:04;102821.28;;;11.95;79.36
71772;BME280;59606;52.138;5.424;2023-05-19T06:59:31;102832.19;;;12.09;78.35
71772;BME280;59606;52.138;5.424;2023-05-19T07:01:57;102830.41;;;12.10;78.46
71772;BME280;59606;52.138;5.424;2023-05-19T07:04:24;102832.69;;;12.22;78.01
71772;BME280;59606;52.138;5.424;2023-05-19T07:06:50;102831.75;;;12.24;77.98
71772;BME280;59606;52.138;5.424;2023-05-19T07:09:17;102841.03;;;12.33;76.40
71772;BME280;59606;52.138;5.424;2023-05-19T07:11:44;102835.03;;;12.31;76.15
71772;BME280;59606;52.138;5.424;2023-05-19T07:14:11;102826.13;;;12.37;75.77
71772;BME280;59606;52.138;5.424;2023-05-19T07:16:37;102820.03;;;12.36;75.28
71772;BME280;59606;52.138;5.424;2023-05-19T07:19:04;102827.03;;;12.36;75.70
71772;BME280;59606;52.138;5.424;2023-05-19T07:21:31;102825.00;;;12.45;75.07
71772;BME280;59606;52.138;5.424;2023-05-19T07:23:58;102826.50;;;12.53;75.57
71772;BME280;59606;52.138;5.424;2023-05-19T07:26:24;102822.03;;;12.56;73.03
71772;BME280;59606;52.138;5.424;2023-05-19T07:28:51;102823.72;;;12.59;73.77
71772;BME280;59606;52.138;5.424;2023-05-19T07:31:18;102828.44;;;12.74;72.40
71772;BME280;59606;52.138;5.424;2023-05-19T07:33:45;102822.81;;;12.86;71.02
71772;BME280;59606;52.138;5.424;2023-05-19T07:36:11;102837.38;;;12.95;70.21
71772;BME280;59606;52.138;5.424;2023-05-19T07:38:38;102821.50;;;13.00;71.89
71772;BME280;59606;52.138;5.424;2023-05-19T07:41:04;102824.63;;;13.11;70.78
71772;BME280;59606;52.138;5.424;2023-05-19T07:43:31;102826.91;;;13.21;69.74
71772;BME280;59606;52.138;5.424;2023-05-19T07:45:58;102817.88;;;13.30;70.12
71772;BME280;59606;52.138;5.424;2023-05-19T07:48:25;102822.00;;;13.37;68.33
71772;BME280;59606;52.138;5.424;2023-05-19T07:50:51;102821.00;;;13.41;67.54
71772;BME280;59606;52.138;5.424;2023-05-19T07:53:18;102816.56;;;13.43;68.01
71772;BME280;59606;52.138;5.424;2023-05-19T07:55:46;102816.03;;;13.59;67.58
71772;BME280;59606;52.138;5.424;2023-05-19T07:58:12;102809.31;;;13.75;66.98
71772;BME280;59606;52.138;5.424;2023-05-19T08:00:39;102810.91;;;13.79;67.15
71772;BME280;59606;52.138;5.424;2023-05-19T08:03:11;102807.78;;;13.93;66.96
71772;BME280;59606;52.138;5.424;2023-05-19T08:05:38;102805.66;;;14.03;65.23
71772;BME280;59606;52.138;5.424;2023-05-19T08:08:05;102800.47;;;14.01;63.68
71772;BME280;59606;52.138;5.424;2023-05-19T08:10:32;102802.19;;;14.02;62.31
71772;BME280;59606;52.138;5.424;2023-05-19T08:12:59;102793.41;;;14.03;61.88
71772;BME280;59606;52.138;5.424;2023-05-19T08:15:26;102792.88;;;14.17;62.67
71772;BME280;59606;52.138;5.424;2023-05-19T08:17:54;102796.63;;;14.33;61.38
71772;BME280;59606;52.138;5.424;2023-05-19T08:20:21;102794.38;;;14.46;60.74
71772;BME280;59606;52.138;5.424;2023-05-19T08:22:48;102787.75;;;14.59;59.36
71772;BME280;59606;52.138;5.424;2023-05-19T08:25:15;102787.44;;;14.67;58.94
71772;BME280;59606;52.138;5.424;2023-05-19T08:27:41;102779.91;;;14.80;57.88
71772;BME280;59606;52.138;5.424;2023-05-19T08:30:08;102776.97;;;14.88;57.94
71772;BME280;59606;52.138;5.424;2023-05-19T08:32:35;102780.72;;;15.02;57.04
71772;BME280;59606;52.138;5.424;2023-05-19T08:35:02;102780.31;;;15.12;56.71
71772;BME280;59606;52.138;5.424;2023-05-19T08:37:29;102773.97;;;15.17;55.15
71772;BME280;59606;52.138;5.424;2023-05-19T08:39:59;102774.03;;;15.16;56.28
71772;BME280;59606;52.138;5.424;2023-05-19T08:42:26;102774.59;;;15.22;54.52
71772;BME280;59606;52.138;5.424;2023-05-19T08:44:52;102767.16;;;15.32;53.89
71772;BME280;59606;52.138;5.424;2023-05-19T08:47:19;102759.88;;;15.39;53.26
71772;BME280;59606;52.138;5.424;2023-05-19T08:49:50;102757.66;;;15.50;52.62
71772;BME280;59606;52.138;5.424;2023-05-19T08:52:40;102747.50;;;15.61;53.49
71772;BME280;59606;52.138;5.424;2023-05-19T08:55:24;102748.19;;;15.66;49.68
71772;BME280;59606;52.138;5.424;2023-05-19T08:57:55;102753.78;;;15.77;50.02
71772;BME280;59606;52.138;5.424;2023-05-19T09:00:21;102751.94;;;15.79;50.25
71772;BME280;59606;52.138;5.424;2023-05-19T09:02:49;102750.78;;;15.85;49.33
71772;BME280;59606;52.138;5.424;2023-05-19T09:05:31;102749.94;;;15.85;49.65
71772;BME280;59606;52.138;5.424;2023-05-19T09:07:58;102752.53;;;15.86;49.71
71772;BME280;59606;52.138;5.424;2023-05-19T09:10:28;102743.28;;;15.96;49.28
71772;BME280;59606;52.138;5.424;2023-05-19T09:12:54;102745.19;;;15.93;49.51
71772;BME280;59606;52.138;5.424;2023-05-19T09:15:25;102736.75;;;15.86;50.41
71772;BME280;59606;52.138;5.424;2023-05-19T09:18:09;102738.44;;;15.87;50.14
71772;BME280;59606;52.138;5.424;2023-05-19T09:20:41;102741.00;;;15.89;49.79
71772;BME280;59606;52.138;5.424;2023-05-19T09:23:15;102745.72;;;15.99;49.97
71772;BME280;59606;52.138;5.424;2023-05-19T09:25:51;102743.66;;;16.06;49.99
71772;BME280;59606;52.138;5.424;2023-05-19T09:28:26;102732.88;;;16.12;49.64
71772;BME280;59606;52.138;5.424;2023-05-19T09:31:01;102741.88;;;16.25;49.13
71772;BME280;59606;52.138;5.424;2023-05-19T09:33:28;102738.72;;;16.36;48.39
71772;BME280;59606;52.138;5.424;2023-05-19T09:35:55;102745.25;;;16.46;48.49
71772;BME280;59606;52.138;5.424;2023-05-19T09:38:26;102732.63;;;16.53;48.21
71772;BME280;59606;52.138;5.424;2023-05-19T09:40:55;102741.25;;;16.57;49.13
71772;BME280;59606;52.138;5.424;2023-05-19T09:43:22;102736.81;;;16.57;46.53
71772;BME280;59606;52.138;5.424;2023-05-19T09:46:05;102734.09;;;16.59;48.57
71772;BME280;59606;52.138;5.424;2023-05-19T09:48:35;102735.75;;;16.61;47.88
71772;BME280;59606;52.138;5.424;2023-05-19T09:51:03;102737.91;;;16.70;48.44
71772;BME280;59606;52.138;5.424;2023-05-19T09:53:33;102721.06;;;16.75;46.29
71772;BME280;59606;52.138;5.424;2023-05-19T09:56:00;102727.97;;;16.77;47.95
71772;BME280;59606;52.138;5.424;2023-05-19T09:58:31;102726.59;;;16.68;46.55
71772;BME280;59606;52.138;5.424;2023-05-19T10:01:00;102730.72;;;16.57;46.45
71772;BME280;59606;52.138;5.424;2023-05-19T10:03:27;102732.63;;;16.53;47.52
71772;BME280;59606;52.138;5.424;2023-05-19T10:05:55;102727.59;;;16.48;46.45
71772;BME280;59606;52.138;5.424;2023-05-19T10:08:22;102730.53;;;16.42;46.88
71772;BME280;59606;52.138;5.424;2023-05-19T10:10:51;102725.75;;;16.50;46.16
71772;BME280;59606;52.138;5.424;2023-05-19T10:13:18;102721.03;;;16.57;47.82
71772;BME280;59606;52.138;5.424;2023-05-19T10:15:48;102724.91;;;16.67;47.13
71772;BME280;59606;52.138;5.424;2023-05-19T10:18:25;102712.00;;;16.80;47.21
71772;BME280;59606;52.138;5.424;2023-05-19T10:20:53;102717.63;;;16.90;47.12
71772;BME280;59606;52.138;5.424;2023-05-19T10:23:19;102708.13;;;16.87;46.32
71772;BME280;59606;52.138;5.424;2023-05-19T10:25:46;102709.66;;;16.91;47.29
71772;BME280;59606;52.138;5.424;2023-05-19T10:28:16;102703.94;;;17.01;46.04
71772;BME280;59606;52.138;5.424;2023-05-19T10:30:45;102696.63;;;17.06;47.33
71772;BME280;59606;52.138;5.424;2023-05-19T10:33:15;102696.75;;;17.20;46.75
71772;BME280;59606;52.138;5.424;2023-05-19T10:36:11;102694.41;;;17.31;47.46
71772;BME280;59606;52.138;5.424;2023-05-19T10:38:47;102692.72;;;17.46;45.75
71772;BME280;59606;52.138;5.424;2023-05-19T10:46:25;102680.50;;;17.77;45.37
71772;BME280;59606;52.138;5.424;2023-05-19T10:48:53;102688.41;;;17.77;45.44
71772;BME280;59606;52.138;5.424;2023-05-19T10:51:27;102688.75;;;17.71;45.33
71772;BME280;59606;52.138;5.424;2023-05-19T10:53:56;102683.97;;;17.61;44.64
71772;BME280;59606;52.138;5.424;2023-05-19T10:56:29;102696.66;;;17.55;43.50
71772;BME280;59606;52.138;5.424;2023-05-19T10:58:56;102684.31;;;17.55;45.84
71772;BME280;59606;52.138;5.424;2023-05-19T11:01:32;102683.94;;;17.79;45.63
71772;BME280;59606;52.138;5.424;2023-05-19T11:04:07;102680.50;;;17.93;44.63
71772;BME280;59606;52.138;5.424;2023-05-19T11:06:36;102673.09;;;17.99;45.38
71772;BME280;59606;52.138;5.424;2023-05-19T11:09:14;102676.50;;;18.01;44.60
71772;BME280;59606;52.138;5.424;2023-05-19T11:11:45;102672.25;;;17.99;44.61
71772;BME280;59606;52.138;5.424;2023-05-19T11:14:14;102669.84;;;18.10;44.07
71772;BME280;59606;52.138;5.424;2023-05-19T11:16:45;102665.25;;;18.13;44.23
71772;BME280;59606;52.138;5.424;2023-05-19T11:21:51;102662.88;;;18.39;41.63
71772;BME280;59606;52.138;5.424;2023-05-19T11:24:36;102663.84;;;18.52;42.18
71772;BME280;59606;52.138;5.424;2023-05-19T11:27:20;102671.41;;;18.58;41.40
71772;BME280;59606;52.138;5.424;2023-05-19T11:29:47;102663.28;;;18.47;40.47
71772;BME280;59606;52.138;5.424;2023-05-19T11:32:14;102665.91;;;18.47;41.14
71772;BME280;59606;52.138;5.424;2023-05-19T11:34:43;102657.91;;;18.49;41.29
71772;BME280;59606;52.138;5.424;2023-05-19T11:37:11;102656.91;;;18.51;41.47
71772;BME280;59606;52.138;5.424;2023-05-19T11:39:38;102658.88;;;18.62;40.88
71772;BME280;59606;52.138;5.424;2023-05-19T11:42:07;102653.50;;;18.64;41.38
71772;BME280;59606;52.138;5.424;2023-05-19T11:44:34;102651.97;;;18.75;40.95
71772;BME280;59606;52.138;5.424;2023-05-19T11:47:02;102645.84;;;18.75;40.82
71772;BME280;59606;52.138;5.424;2023-05-19T11:49:29;102649.22;;;18.77;39.91
71772;BME280;59606;52.138;5.424;2023-05-19T11:51:59;102645.25;;;18.84;39.58
71772;BME280;59606;52.138;5.424;2023-05-19T11:54:30;102643.19;;;18.89;38.87
71772;BME280;59606;52.138;5.424;2023-05-19T11:57:01;102633.09;;;18.81;39.11
71772;BME280;59606;52.138;5.424;2023-05-19T11:59:32;102633.66;;;18.87;38.18
71772;BME280;59606;52.138;5.424;2023-05-19T12:02:06;102637.81;;;18.91;39.29
71772;BME280;59606;52.138;5.424;2023-05-19T12:04:40;102644.31;;;18.99;37.55
71772;BME280;59606;52.138;5.424;2023-05-19T12:07:07;102641.47;;;19.17;38.11
71772;BME280;59606;52.138;5.424;2023-05-19T12:09:33;102642.59;;;19.27;37.31
71772;BME280;59606;52.138;5.424;2023-05-19T12:12:01;102645.50;;;19.37;38.69
71772;BME280;59606;52.138;5.424;2023-05-19T12:14:28;102634.19;;;19.35;37.35
71772;BME280;59606;52.138;5.424;2023-05-19T12:16:56;102637.97;;;19.30;36.08
71772;BME280;59606;52.138;5.424;2023-05-19T12:19:24;102631.66;;;19.33;36.14
71772;BME280;59606;52.138;5.424;2023-05-19T12:21:51;102640.03;;;19.40;36.92
71772;BME280;59606;52.138;5.424;2023-05-19T12:24:19;102640.03;;;19.40;36.58
71772;BME280;59606;52.138;5.424;2023-05-19T12:26:45;102634.63;;;19.41;37.16
71772;BME280;59606;52.138;5.424;2023-05-19T12:29:12;102638.19;;;19.54;38.59
71772;BME280;59606;52.138;5.424;2023-05-19T12:31:39;102633.66;;;19.57;38.86
71772;BME280;59606;52.138;5.424;2023-05-19T12:34:05;102628.28;;;19.58;39.96
71772;BME280;59606;52.138;5.424;2023-05-19T12:36:32;102621.28;;;19.57;41.17
71772;BME280;59606;52.138;5.424;2023-05-19T12:38:59;102619.03;;;19.51;40.82
71772;BME280;59606;52.138;5.424;2023-05-19T12:41:25;102619.03;;;19.51;41.48
71772;BME280;59606;52.138;5.424;2023-05-19T12:43:55;102620.09;;;19.48;42.15
71772;BME280;59606;52.138;5.424;2023-05-19T12:46:21;102614.81;;;19.48;42.26
71772;BME280;59606;52.138;5.424;2023-05-19T12:48:48;102614.50;;;19.67;41.92
71772;BME280;59606;52.138;5.424;2023-05-19T12:51:18;102609.56;;;19.75;41.27
71772;BME280;59606;52.138;5.424;2023-05-19T12:53:45;102614.41;;;19.69;39.75
71772;BME280;59606;52.138;5.424;2023-05-19T12:56:15;102611.00;;;19.67;40.34
71772;BME280;59606;52.138;5.424;2023-05-19T12:58:43;102609.56;;;19.75;39.83
71772;BME280;59606;52.138;5.424;2023-05-19T13:01:15;102600.28;;;19.83;39.74
71772;BME280;59606;52.138;5.424;2023-05-19T13:03:43;102602.09;;;19.95;41.08
71772;BME280;59606;52.138;5.424;2023-05-19T13:06:10;102593.47;;;20.06;40.67
71772;BME280;59606;52.138;5.424;2023-05-19T13:08:37;102596.06;;;19.93;39.07
71772;BME280;59606;52.138;5.424;2023-05-19T13:11:06;102594.34;;;19.92;40.31
71772;BME280;59606;52.138;5.424;2023-05-19T13:13:33;102604.44;;;19.99;39.02
71772;BME280;59606;52.138;5.424;2023-05-19T13:15:59;102595.75;;;19.97;38.96
71772;BME280;59606;52.138;5.424;2023-05-19T13:18:26;102602.97;;;19.95;38.93
71772;BME280;59606;52.138;5.424;2023-05-19T13:20:52;102593.22;;;19.96;39.93